sensor_id;sensor_type;location;lat;lon;timestamp;pressure;altitude;pressure_sealevel;temperature;humidity
11621;BME280;5866;49.094;11.900;2023-02-22T00:01:31;96224.28;;;6.49;100.00
11621;BME280;5866;49.094;11.900;2023-02-22T00:04:02;96233.41;;;6.45;100.00
11621;BME280;5866;49.094;11.900;2023-02-22T00:06:30;96219.53;;;6.53;100.00
11621;BME280;5866;49.094;11.900;2023-02-22T00:08:58;96225.22;;;6.48;100.00
11621;BME280;5866;49.094;11.900;2023-02-22T00:11:27;96226.47;;;6.44;100.00
11621;BME280;5866;49.094;11.900;2023-02-22T00:13:56;96220.75;;;6.39;100.00
11621;BME280;5866;49.094;11.900;2023-02-22T00:16:25;96225.88;;;6.31;100.00
11621;BME280;5866;49.094;11.900;2023-02-22T00:18:53;96223.53;;;6.28;100.00
11621;BME280;5866;49.094;11.900;2023-02-22T00:21:21;96221.94;;;5.97;100.00
11621;BME280;5866;49.094;11.900;2023-02-22T00:23:48;96227.91;;;5.78;100.00
11621;BME280;5866;49.094;11.900;2023-02-22T00:26:21;96216.28;;;5.81;100.00
11621;BME280;5866;49.094;11.900;2023-02-22T00:28:51;96209.72;;;5.96;100.00
11621;BME280;5866;49.094;11.900;2023-02-22T00:31:19;96212.97;;;6.09;100.00
11621;BME280;5866;49.094;11.900;2023-02-22T00:33:48;96211.03;;;6.11;100.00
11621;BME280;5866;49.094;11.900;2023-02-22T00:36:16;96214.06;;;6.16;100.00
11621;BME280;5866;49.094;11.900;2023-02-22T00:38:44;96214.91;;;6.16;100.00
11621;BME280;5866;49.094;11.900;2023-02-22T00:41:11;96209.50;;;6.18;100.00
11621;BME280;5866;49.094;11.900;2023-02-22T00:43:39;96206.72;;;6.10;100.00
11621;BME280;5866;49.094;11.900;2023-02-22T00:46:06;96198.41;;;6.05;100.00
11621;BME280;5866;49.094;11.900;2023-02-22T00:48:34;96202.56;;;6.07;100.00
11621;BME280;5866;49.094;11.900;2023-02-22T00:51:03;96201.19;;;6.13;100.00
11621;BME280;5866;49.094;11.900;2023-02-22T00:53:31;96194.53;;;6.18;100.00
11621;BME280;5866;49.094;11.900;2023-02-22T00:55:58;96201.44;;;6.10;100.00
11621;BME280;5866;49.094;11.900;2023-02-22T00:58:26;96199.66;;;6.10;100.00
11621;BME280;5866;49.094;11.900;2023-02-22T01:00:54;96200.19;;;6.14;100.00
11621;BME280;5866;49.094;11.900;2023-02-22T01:03:21;96199.66;;;6.01;100.00
11621;BME280;5866;49.094;11.900;2023-02-22T01:05:49;96198.25;;;6.16;100.00
11621;BME280;5866;49.094;11.900;2023-02-22T01:08:18;96192.84;;;6.08;100.00
11621;BME280;5866;49.094;11.900;2023-02-22T01:10:45;96201.19;;;6.13;100.00
11621;BME280;5866;49.094;11.900;2023-02-22T01:13:13;96190.66;;;6.13;100.00
11621;BME280;5866;49.094;11.900;2023-02-22T01:15:41;96189.25;;;6.09;100.00
11621;BME280;5866;49.094;11.900;2023-02-22T01:18:11;96186.78;;;6.07;100.00
11621;BME280;5866;49.094;11.900;2023-02-22T01:20:42;96182.72;;;6.03;100.00
11621;BME280;5866;49.094;11.900;2023-02-22T01:23:13;96176.22;;;5.98;100.00
11621;BME280;5866;49.094;11.900;2023-02-22T01:25:44;96181.16;;;5.91;100.00
11621;BME280;5866;49.094;11.900;2023-02-22T01:28:11;96184.00;;;5.79;100.00
11621;BME280;5866;49.094;11.900;2023-02-22T01:30:40;96171.41;;;5.73;100.00
11621;BME280;5866;49.094;11.900;2023-02-22T01:33:08;96172.78;;;5.77;100.00
11621;BME280;5866;49.094;11.900;2023-02-22T01:35:36;96179.44;;;5.71;100.00
11621;BME280;5866;49.094;11.900;2023-02-22T01:38:07;96175.59;;;5.85;100.00
11621;BME280;5866;49.094;11.900;2023-02-22T01:40:36;96178.00;;;5.97;100.00
11621;BME280;5866;49.094;11.900;2023-02-22T01:43:14;96171.78;;;6.08;100.00
11621;BME280;5866;49.094;11.900;2023-02-22T01:45:47;96172.06;;;6.05;100.00
11621;BME280;5866;49.094;11.900;2023-02-22T01:48:18;96170.09;;;5.97;100.00
11621;BME280;5866;49.094;11.900;2023-02-22T01:50:49;96175.34;;;5.88;100.00
11621;BME280;5866;49.094;11.900;2023-02-22T01:53:21;96174.25;;;5.90;100.00
11621;BME280;5866;49.094;11.900;2023-02-22T01:55:50;96172.44;;;5.91;100.00
11621;BME280;5866;49.094;11.900;2023-02-22T01:58:21;96169.00;;;6.00;100.00
11621;BME280;5866;49.094;11.900;2023-02-22T02:00:50;96174.13;;;5.92;100.00
11621;BME280;5866;49.094;11.900;2023-02-22T02:03:20;96160.41;;;5.88;100.00
11621;BME280;5866;49.094;11.900;2023-02-22T02:05:50;96157.06;;;5.86;100.00
11621;BME280;5866;49.094;11.900;2023-02-22T02:08:26;96163.03;;;5.88;100.00
11621;BME280;5866;49.094;11.900;2023-02-22T02:10:55;96155.75;;;5.81;100.00
11621;BME280;5866;49.094;11.900;2023-02-22T02:13:26;96154.31;;;5.88;100.00
11621;BME280;5866;49.094;11.900;2023-02-22T02:15:55;96158.31;;;5.92;100.00
11621;BME280;5866;49.094;11.900;2023-02-22T02:18:23;96145.41;;;5.89;100.00
11621;BME280;5866;49.094;11.900;2023-02-22T02:21:24;96146.84;;;5.93;100.00
11621;BME280;5866;49.094;11.900;2023-02-22T02:24:17;96152.75;;;5.85;100.00
11621;BME280;5866;49.094;11.900;2023-02-22T02:27:18;96148.34;;;5.86;100.00
11621;BME280;5866;49.094;11.900;2023-02-22T02:32:59;96144.53;;;5.69;100.00
11621;BME280;5866;49.094;11.900;2023-02-22T02:35:43;96141.75;;;5.71;100.00
11621;BME280;5866;49.094;11.900;2023-02-22T02:38:20;96135.34;;;5.63;100.00
11621;BME280;5866;49.094;11.900;2023-02-22T02:40:54;96140.81;;;5.72;100.00
11621;BME280;5866;49.094;11.900;2023-02-22T02:43:29;96133.69;;;5.62;100.00
11621;BME280;5866;49.094;11.900;2023-02-22T02:46:03;96135.09;;;5.57;100.00
11621;BME280;5866;49.094;11.900;2023-02-22T02:48:35;96136.19;;;5.64;100.00
11621;BME280;5866;49.094;11.900;2023-02-22T02:51:06;96127.34;;;5.65;100.00
11621;BME280;5866;49.094;11.900;2023-02-22T02:53:42;96127.47;;;5.63;100.00
11621;BME280;5866;49.094;11.900;2023-02-22T02:56:11;96125.66;;;5.54;100.00
11621;BME280;5866;49.094;11.900;2023-02-22T02:58:44;96128.00;;;5.57;100.00
11621;BME280;5866;49.094;11.900;2023-02-22T03:01:21;96114.53;;;5.51;100.00
11621;BME280;5866;49.094;11.900;2023-02-22T03:04:11;96110.72;;;5.55;100.00
11621;BME280;5866;49.094;11.900;2023-02-22T03:07:21;96111.13;;;5.60;100.00
11621;BME280;5866;49.094;11.900;2023-02-22T03:09:58;96115.38;;;5.51;100.00
11621;BME280;5866;49.094;11.900;2023-02-22T03:12:37;96110.41;;;5.48;100.00
11621;BME280;5866;49.094;11.900;2023-02-22T03:15:18;96107.34;;;5.43;100.00
11621;BME280;5866;49.094;11.900;2023-02-22T03:17:53;96106.63;;;5.41;100.00
11621;BME280;5866;49.094;11.900;2023-02-22T03:20:28;96098.06;;;5.49;100.00
11621;BME280;5866;49.094;11.900;2023-02-22T03:23:01;96106.09;;;5.47;100.00
11621;BME280;5866;49.094;11.900;2023-02-22T03:25:33;96097.34;;;5.37;100.00
11621;BME280;5866;49.094;11.900;2023-02-22T03:28:04;96102.75;;;5.36;100.00
11621;BME280;5866;49.094;11.900;2023-02-22T03:30:40;96102.88;;;5.34;100.00
11621;BME280;5866;49.094;11.900;2023-02-22T03:33:13;96103.84;;;5.33;100.00
11621;BME280;5866;49.094;11.900;2023-02-22T03:35:47;96102.56;;;5.28;100.00
11621;BME280;5866;49.094;11.900;2023-02-22T03:38:18;96102.88;;;5.34;100.00
11621;BME280;5866;49.094;11.900;2023-02-22T03:40:49;96090.94;;;5.21;100.00
11621;BME280;5866;49.094;11.900;2023-02-22T03:43:22;96097.88;;;5.31;100.00
11621;BME280;5866;49.094;11.900;2023-02-22T03:45:51;96100.94;;;5.36;100.00
11621;BME280;5866;49.094;11.900;2023-02-22T03:48:22;96096.81;;;5.43;100.00
11621;BME280;5866;49.094;11.900;2023-02-22T03:50:53;96092.41;;;5.44;100.00
11621;BME280;5866;49.094;11.900;2023-02-22T03:53:23;96096.56;;;5.46;100.00
11621;BME280;5866;49.094;11.900;2023-02-22T03:55:52;96095.16;;;5.42;100.00
11621;BME280;5866;49.094;11.900;2023-02-22T03:58:23;96099.88;;;5.48;100.00
11621;BME280;5866;49.094;11.900;2023-02-22T04:00:53;96097.94;;;5.50;100.00
11621;BME280;5866;49.094;11.900;2023-02-22T04:03:21;96098.75;;;5.41;100.00
11621;BME280;5866;49.094;11.900;2023-02-22T04:05:49;96097.88;;;5.31;100.00
11621;BME280;5866;49.094;11.900;2023-02-22T04:08:18;96097.88;;;5.31;100.00
11621;BME280;5866;49.094;11.900;2023-02-22T04:10:45;96096.22;;;5.30;100.00
11621;BME280;5866;49.094;11.900;2023-02-22T04:13:13;96094.28;;;5.32;100.00
11621;BME280;5866;49.094;11.900;2023-02-22T04:15:41;96093.72;;;5.29;100.00
11621;BME280;5866;49.094;11.900;2023-02-22T04:18:08;96095.41;;;5.30;100.00
11621;BME280;5866;49.094;11.900;2023-02-22T04:20:36;96100.78;;;5.28;100.00
11621;BME280;5866;49.094;11.900;2023-02-22T04:23:03;96099.94;;;5.28;100.00
11621;BME280;5866;49.094;11.900;2023-02-22T04:25:32;96102.97;;;5.23;100.00
11621;BME280;5866;49.094;11.900;2023-02-22T04:27:59;96100.06;;;5.26;100.00
11621;BME280;5866;49.094;11.900;2023-02-22T04:30:27;96102.28;;;5.21;100.00
11621;BME280;5866;49.094;11.900;2023-02-22T04:32:55;96097.72;;;5.23;100.00
11621;BME280;5866;49.094;11.900;2023-02-22T04:35:23;96092.03;;;5.18;100.00
11621;BME280;5866;49.094;11.900;2023-02-22T04:37:50;96098.97;;;5.19;100.00
11621;BME280;5866;49.094;11.900;2023-02-22T04:40:20;96090.09;;;5.20;100.00
11621;BME280;5866;49.094;11.900;2023-02-22T04:42:49;96097.28;;;5.18;100.00
11621;BME280;5866;49.094;11.900;2023-02-22T04:45:17;96097.81;;;5.12;100.00
11621;BME280;5866;49.094;11.900;2023-02-22T04:47:44;96095.00;;;5.04;100.00
11621;BME280;5866;49.094;11.900;2023-02-22T04:50:12;96092.53;;;5.03;100.00
11621;BME280;5866;49.094;11.900;2023-02-22T04:52:40;96088.34;;;5.00;100.00
11621;BME280;5866;49.094;11.900;2023-02-22T04:55:08;96084.44;;;4.95;100.00
11621;BME280;5866;49.094;11.900;2023-02-22T04:57:36;96083.63;;;4.94;100.00
11621;BME280;5866;49.094;11.900;2023-02-22T05:00:05;96083.78;;;5.02;100.00
11621;BME280;5866;49.094;11.900;2023-02-22T05:02:37;96082.28;;;5.09;100.00
11621;BME280;5866;49.094;11.900;2023-02-22T05:05:05;96086.16;;;5.05;100.00
11621;BME280;5866;49.094;11.900;2023-02-22T05:07:33;96088.34;;;5.00;100.00
11621;BME280;5866;49.094;11.900;2023-02-22T05:10:01;96087.03;;;4.85;100.00
11621;BME280;5866;49.094;11.900;2023-02-22T05:12:28;96090.66;;;4.94;100.00
11621;BME280;5866;49.094;11.900;2023-02-22T05:14:56;96088.78;;;5.05;100.00
11621;BME280;5866;49.094;11.900;2023-02-22T05:17:25;96091.56;;;5.13;100.00
11621;BME280;5866;49.094;11.900;2023-02-22T05:19:52;96085.13;;;5.27;100.00
11621;BME280;5866;49.094;11.900;2023-02-22T05:22:20;96083.75;;;5.23;100.00
11621;BME280;5866;49.094;11.900;2023-02-22T05:24:47;96078.78;;;5.29;100.00
11621;BME280;5866;49.094;11.900;2023-02-22T05:27:15;96077.56;;;5.33;100.00
11621;BME280;5866;49.094;11.900;2023-02-22T05:29:42;96078.94;;;5.37;100.00
11621;BME280;5866;49.094;11.900;2023-02-22T05:32:10;96075.50;;;5.46;100.00
11621;BME280;5866;49.094;11.900;2023-02-22T05:34:39;96065.56;;;5.59;100.00
11621;BME280;5866;49.094;11.900;2023-02-22T05:37:07;96067.25;;;5.70;100.00
11621;BME280;5866;49.094;11.900;2023-02-22T05:39:34;96060.88;;;5.63;100.00
11621;BME280;5866;49.094;11.900;2023-02-22T05:42:02;96070.19;;;5.27;100.00
11621;BME280;5866;49.094;11.900;2023-02-22T05:44:29;96064.41;;;5.33;100.00
11621;BME280;5866;49.094;11.900;2023-02-22T05:46:57;96064.31;;;5.54;100.00
11621;BME280;5866;49.094;11.900;2023-02-22T05:49:24;96068.63;;;5.64;100.00
11621;BME280;5866;49.094;11.900;2023-02-22T05:51:53;96071.41;;;5.63;100.00
11621;BME280;5866;49.094;11.900;2023-02-22T05:54:24;96072.78;;;5.77;100.00
11621;BME280;5866;49.094;11.900;2023-02-22T05:56:52;96070.31;;;5.75;100.00
11621;BME280;5866;49.094;11.900;2023-02-22T05:59:19;96069.06;;;5.79;100.00
11621;BME280;5866;49.094;11.900;2023-02-22T06:01:47;96067.81;;;5.83;100.00
11621;BME280;5866;49.094;11.900;2023-02-22T06:04:14;96066.44;;;5.79;100.00
11621;BME280;5866;49.094;11.900;2023-02-22T06:06:42;96064.81;;;5.88;100.00
11621;BME280;5866;49.094;11.900;2023-02-22T06:09:11;96063.97;;;5.87;100.00
11621;BME280;5866;49.094;11.900;2023-02-22T06:11:38;96059.25;;;5.91;100.00
11621;BME280;5866;49.094;11.900;2023-02-22T06:14:06;96060.38;;;5.98;100.00
11621;BME280;5866;49.094;11.900;2023-02-22T06:16:33;96065.94;;;6.04;100.00
11621;BME280;5866;49.094;11.900;2023-02-22T06:19:01;96058.44;;;6.00;100.00
11621;BME280;5866;49.094;11.900;2023-02-22T06:21:28;96060.81;;;6.03;100.00
11621;BME280;5866;49.094;11.900;2023-02-22T06:23:56;96066.19;;;6.01;100.00
11621;BME280;5866;49.094;11.900;2023-02-22T06:26:24;96070.66;;;6.01;100.00
11621;BME280;5866;49.094;11.900;2023-02-22T06:28:52;96073.41;;;5.99;100.00
11621;BME280;5866;49.094;11.900;2023-02-22T06:31:19;96075.34;;;6.26;100.00
11621;BME280;5866;49.094;11.900;2023-02-22T06:33:47;96075.47;;;6.43;100.00
11621;BME280;5866;49.094;11.900;2023-02-22T06:36:14;96071.97;;;6.62;100.00
11621;BME280;5866;49.094;11.900;2023-02-22T06:38:42;96076.34;;;6.81;100.00
11621;BME280;5866;49.094;11.900;2023-02-22T06:41:09;96078.31;;;6.88;100.00
11621;BME280;5866;49.094;11.900;2023-02-22T06:43:38;96080.78;;;6.99;100.00
11621;BME280;5866;49.094;11.900;2023-02-22T06:46:09;96078.50;;;7.14;100.00
11621;BME280;5866;49.094;11.900;2023-02-22T06:48:37;96080.97;;;7.15;100.00
11621;BME280;5866;49.094;11.900;2023-02-22T06:51:06;96083.44;;;7.27;100.00
11621;BME280;5866;49.094;11.900;2023-02-22T06:53:34;96080.81;;;7.27;100.00
11621;BME280;5866;49.094;11.900;2023-02-22T06:56:02;96084.63;;;7.05;100.00
11621;BME280;5866;49.094;11.900;2023-02-22T06:58:29;96082.88;;;7.23;100.00
11621;BME280;5866;49.094;11.900;2023-02-22T07:00:58;96093.09;;;7.36;100.00
11621;BME280;5866;49.094;11.900;2023-02-22T07:03:28;96085.16;;;7.45;100.00
11621;BME280;5866;49.094;11.900;2023-02-22T07:05:55;96090.03;;;7.67;100.00
11621;BME280;5866;49.094;11.900;2023-02-22T07:08:23;96086.22;;;7.79;100.00
11621;BME280;5866;49.094;11.900;2023-02-22T07:10:50;96085.25;;;7.98;100.00
11621;BME280;5866;49.094;11.900;2023-02-22T07:13:18;96086.47;;;8.21;100.00
11621;BME280;5866;49.094;11.900;2023-02-22T07:15:46;96083.41;;;8.43;100.00
11621;BME280;5866;49.094;11.900;2023-02-22T07:18:14;96090.56;;;8.68;100.00
11621;BME280;5866;49.094;11.900;2023-02-22T07:20:42;96086.09;;;8.95;100.00
11621;BME280;5866;49.094;11.900;2023-02-22T07:23:12;96093.56;;;8.99;100.00
11621;BME280;5866;49.094;11.900;2023-02-22T07:25:40;96083.00;;;8.99;100.00
11621;BME280;5866;49.094;11.900;2023-02-22T07:28:08;96085.13;;;8.96;100.00
11621;BME280;5866;49.094;11.900;2023-02-22T07:30:36;96083.06;;;8.82;100.00
11621;BME280;5866;49.094;11.900;2023-02-22T07:33:06;96080.59;;;8.88;100.00
11621;BME280;5866;49.094;11.900;2023-02-22T07:35:37;96084.25;;;8.87;100.00
11621;BME280;5866;49.094;11.900;2023-02-22T07:38:06;96081.59;;;9.13;100.00
11621;BME280;5866;49.094;11.900;2023-02-22T07:40:35;96081.22;;;9.33;100.00
11621;BME280;5866;49.094;11.900;2023-02-22T07:43:04;96071.09;;;9.63;100.00
11621;BME280;5866;49.094;11.900;2023-02-22T07:45:36;96083.41;;;9.80;100.00
11621;BME280;5866;49.094;11.900;2023-02-22T07:48:05;96082.94;;;9.92;100.00
11621;BME280;5866;49.094;11.900;2023-02-22T07:50:34;96080.97;;;10.02;100.00
11621;BME280;5866;49.094;11.900;2023-02-22T07:53:06;96071.59;;;10.16;100.00
11621;BME280;5866;49.094;11.900;2023-02-22T07:55:36;96076.75;;;10.33;100.00
11621;BME280;5866;49.094;11.900;2023-02-22T07:58:06;96079.59;;;10.80;100.00
11621;BME280;5866;49.094;11.900;2023-02-22T08:00:36;96072.75;;;11.10;100.00
11621;BME280;5866;49.094;11.900;2023-02-22T08:03:06;96069.19;;;11.34;100.00
11621;BME280;5866;49.094;11.900;2023-02-22T08:05:34;96065.50;;;11.51;100.00
11621;BME280;5866;49.094;11.900;2023-02-22T08:08:05;96068.09;;;11.75;100.00
11621;BME280;5866;49.094;11.900;2023-02-22T08:10:34;96068.41;;;11.80;100.00
11621;BME280;5866;49.094;11.900;2023-02-22T08:13:03;96070.00;;;11.42;100.00
11621;BME280;5866;49.094;11.900;2023-02-22T08:15:33;96069.84;;;11.36;100.00
11621;BME280;5866;49.094;11.900;2023-02-22T08:18:02;96060.06;;;11.36;100.00
11621;BME280;5866;49.094;11.900;2023-02-22T08:20:30;96062.53;;;11.38;100.00
11621;BME280;5866;49.094;11.900;2023-02-22T08:22:58;96062.59;;;11.76;100.00
11621;BME280;5866;49.094;11.900;2023-02-22T08:25:28;96063.56;;;12.14;100.00
11621;BME280;5866;49.094;11.900;2023-02-22T08:27:57;96063.75;;;12.58;100.00
11621;BME280;5866;49.094;11.900;2023-02-22T08:30:27;96062.78;;;12.96;100.00
11621;BME280;5866;49.094;11.900;2023-02-22T08:32:55;96060.53;;;13.22;100.00
11621;BME280;5866;49.094;11.900;2023-02-22T08:35:24;96059.56;;;13.52;100.00
11621;BME280;5866;49.094;11.900;2023-02-22T08:37:55;96048.53;;;14.06;100.00
11621;BME280;5866;49.094;11.900;2023-02-22T08:40:25;96045.38;;;14.31;96.40
11621;BME280;5866;49.094;11.900;2023-02-22T08:42:55;96044.34;;;14.54;93.54
11621;BME280;5866;49.094;11.900;2023-02-22T08:45:23;96046.72;;;14.42;90.30
11621;BME280;5866;49.094;11.900;2023-02-22T08:47:50;96046.56;;;14.29;89.32
11621;BME280;5866;49.094;11.900;2023-02-22T08:50:20;96050.38;;;14.41;87.01
11621;BME280;5866;49.094;11.900;2023-02-22T08:52:49;96052.31;;;14.47;82.30
11621;BME280;5866;49.094;11.900;2023-02-22T08:55:18;96048.06;;;14.53;83.22
11621;BME280;5866;49.094;11.900;2023-02-22T08:57:45;96044.28;;;14.68;80.92
11621;BME280;5866;49.094;11.900;2023-02-22T09:00:16;96047.09;;;14.60;82.16
11621;BME280;5866;49.094;11.900;2023-02-22T09:02:43;96049.38;;;14.63;80.98
11621;BME280;5866;49.094;11.900;2023-02-22T09:05:11;96045.94;;;15.18;80.62
11621;BME280;5866;49.094;11.900;2023-02-22T09:07:40;96052.09;;;15.19;78.97
11621;BME280;5866;49.094;11.900;2023-02-22T09:10:10;96056.88;;;14.74;78.78
11621;BME280;5866;49.094;11.900;2023-02-22T09:12:41;96047.34;;;14.65;81.21
11621;BME280;5866;49.094;11.900;2023-02-22T09:15:09;96051.75;;;15.00;77.85
11621;BME280;5866;49.094;11.900;2023-02-22T09:17:38;96046.69;;;15.05;78.63
11621;BME280;5866;49.094;11.900;2023-02-22T09:20:07;96044.84;;;15.12;75.61
11621;BME280;5866;49.094;11.900;2023-02-22T09:22:35;96046.09;;;15.10;74.77
11621;BME280;5866;49.094;11.900;2023-02-22T09:25:03;96040.19;;;14.93;76.12
11621;BME280;5866;49.094;11.900;2023-02-22T09:27:42;96036.38;;;15.02;75.09
11621;BME280;5866;49.094;11.900;2023-02-22T09:30:15;96045.59;;;15.28;73.59
11621;BME280;5866;49.094;11.900;2023-02-22T09:32:44;96043.91;;;14.92;74.58
11621;BME280;5866;49.094;11.900;2023-02-22T09:35:12;96039.03;;;15.30;76.51
11621;BME280;5866;49.094;11.900;2023-02-22T09:37:39;96040.75;;;16.26;69.12
11621;BME280;5866;49.094;11.900;2023-02-22T09:40:14;96040.13;;;16.24;66.12
11621;BME280;5866;49.094;11.900;2023-02-22T09:42:59;96036.75;;;16.49;64.50
11621;BME280;5866;49.094;11.900;2023-02-22T09:45:31;96033.97;;;16.30;65.21
11621;BME280;5866;49.094;11.900;2023-02-22T09:48:05;96033.28;;;17.27;61.36
11621;BME280;5866;49.094;11.900;2023-02-22T09:50:50;96029.94;;;17.38;60.07
11621;BME280;5866;49.094;11.900;2023-02-22T09:53:23;96028.25;;;17.64;60.23
11621;BME280;5866;49.094;11.900;2023-02-22T09:55:58;96026.34;;;18.35;57.32
11621;BME280;5866;49.094;11.900;2023-02-22T09:58:30;96021.75;;;18.48;55.62
11621;BME280;5866;49.094;11.900;2023-02-22T10:01:09;96018.78;;;18.63;55.83
11621;BME280;5866;49.094;11.900;2023-02-22T10:03:48;96008.22;;;18.92;55.35
11621;BME280;5866;49.094;11.900;2023-02-22T10:06:20;96006.81;;;19.57;53.22
11621;BME280;5866;49.094;11.900;2023-02-22T10:08:48;96005.47;;;20.03;51.92
11621;BME280;5866;49.094;11.900;2023-02-22T10:11:31;96002.25;;;19.94;50.68
11621;BME280;5866;49.094;11.900;2023-02-22T10:14:07;96002.78;;;20.03;50.96
11621;BME280;5866;49.094;11.900;2023-02-22T10:16:42;96007.34;;;19.48;51.11
11621;BME280;5866;49.094;11.900;2023-02-22T10:19:21;95995.50;;;18.06;53.82
11621;BME280;5866;49.094;11.900;2023-02-22T10:22:01;96006.06;;;16.85;57.78
11621;BME280;5866;49.094;11.900;2023-02-22T10:24:40;96003.59;;;17.16;59.69
11621;BME280;5866;49.094;11.900;2023-02-22T10:27:16;95999.34;;;18.23;56.88
11621;BME280;5866;49.094;11.900;2023-02-22T10:29:47;95989.06;;;19.07;53.45
11621;BME280;5866;49.094;11.900;2023-02-22T10:32:28;95983.34;;;19.46;52.75
11621;BME280;5866;49.094;11.900;2023-02-22T10:34:59;95983.59;;;19.20;52.09
11621;BME280;5866;49.094;11.900;2023-02-22T10:37:31;95979.53;;;18.62;52.61
11621;BME280;5866;49.094;11.900;2023-02-22T10:40:11;95985.59;;;18.75;53.12
11621;BME280;5866;49.094;11.900;2023-02-22T10:42:39;95973.72;;;19.14;52.28
11621;BME280;5866;49.094;11.900;2023-02-22T10:45:19;95973.69;;;18.89;51.58
11621;BME280;5866;49.094;11.900;2023-02-22T10:47:48;95974.88;;;18.06;53.55
11621;BME280;5866;49.094;11.900;2023-02-22T10:50:18;95972.19;;;17.56;55.98
11621;BME280;5866;49.094;11.900;2023-02-22T10:52:46;95974.75;;;16.65;58.61
11621;BME280;5866;49.094;11.900;2023-02-22T10:55:15;95973.94;;;16.98;58.66
11621;BME280;5866;49.094;11.900;2023-02-22T10:57:45;95974.53;;;17.13;57.64
11621;BME280;5866;49.094;11.900;2023-02-22T11:00:17;95962.72;;;17.40;57.30
11621;BME280;5866;49.094;11.900;2023-02-22T11:02:50;95961.25;;;17.44;56.26
11621;BME280;5866;49.094;11.900;2023-02-22T11:05:32;95959.91;;;17.09;57.20
11621;BME280;5866;49.094;11.900;2023-02-22T11:08:22;95958.63;;;17.18;56.68
11621;BME280;5866;49.094;11.900;2023-02-22T11:10:51;95955.38;;;16.90;59.09
11621;BME280;5866;49.094;11.900;2023-02-22T11:13:24;95949.09;;;17.35;59.25
11621;BME280;5866;49.094;11.900;2023-02-22T11:15:52;95944.09;;;18.47;54.84
11621;BME280;5866;49.094;11.900;2023-02-22T11:18:23;95942.94;;;18.85;52.26
11621;BME280;5866;49.094;11.900;2023-02-22T11:21:04;95942.09;;;19.10;52.12
11621;BME280;5866;49.094;11.900;2023-02-22T11:23:33;95938.38;;;19.53;50.84
11621;BME280;5866;49.094;11.900;2023-02-22T11:26:06;95938.88;;;20.28;49.46
11621;BME280;5866;49.094;11.900;2023-02-22T11:28:36;95933.78;;;21.14;48.01
11621;BME280;5866;49.094;11.900;2023-02-22T11:31:18;95920.63;;;21.52;47.00
11621;BME280;5866;49.094;11.900;2023-02-22T11:33:50;95922.63;;;21.33;46.57
11621;BME280;5866;49.094;11.900;2023-02-22T11:36:33;95923.44;;;21.57;46.62
11621;BME280;5866;49.094;11.900;2023-02-22T11:39:04;95909.16;;;21.85;45.47
11621;BME280;5866;49.094;11.900;2023-02-22T11:41:36;95910.16;;;21.56;45.73
11621;BME280;5866;49.094;11.900;2023-02-22T11:44:12;95904.22;;;21.93;45.35
11621;BME280;5866;49.094;11.900;2023-02-22T11:46:41;95906.44;;;21.96;44.52
11621;BME280;5866;49.094;11.900;2023-02-22T11:49:11;95902.56;;;21.53;45.48
11621;BME280;5866;49.094;11.900;2023-02-22T11:51:49;95902.34;;;21.94;44.78
11621;BME280;5866;49.094;11.900;2023-02-22T11:54:40;95898.13;;;22.14;44.53
11621;BME280;5866;49.094;11.900;2023-02-22T11:57:28;95893.78;;;22.42;43.67
11621;BME280;5866;49.094;11.900;2023-02-22T12:00:06;95889.75;;;21.48;45.34
11621;BME280;5866;49.094;11.900;2023-02-22T12:02:56;95891.91;;;20.88;47.18
11621;BME280;5866;49.094;11.900;2023-02-22T12:05:43;95890.47;;;20.97;47.08
11621;BME280;5866;49.094;11.900;2023-02-22T12:08:34;95883.13;;;21.16;46.13
11621;BME280;5866;49.094;11.900;2023-02-22T12:11:12;95884.81;;;21.57;45.13
11621;BME280;5866;49.094;11.900;2023-02-22T12:13:58;95882.16;;;21.33;45.45
11621;BME280;5866;49.094;11.900;2023-02-22T12:16:38;95879.81;;;21.77;45.12
11621;BME280;5866;49.094;11.900;2023-02-22T12:19:17;95873.41;;;22.51;43.39
11621;BME280;5866;49.094;11.900;2023-02-22T12:21:51;95871.84;;;22.55;42.83
11621;BME280;5866;49.094;11.900;2023-02-22T12:24:24;95866.41;;;22.38;43.43
11621;BME280;5866;49.094;11.900;2023-02-22T12:26:58;95868.28;;;22.66;42.98
11621;BME280;5866;49.094;11.900;2023-02-22T12:29:30;95870.06;;;22.94;42.18
11621;BME280;5866;49.094;11.900;2023-02-22T12:32:05;95858.25;;;23.00;41.88
11621;BME280;5866;49.094;11.900;2023-02-22T12:34:37;95859.97;;;23.44;41.39
11621;BME280;5866;49.094;11.900;2023-02-22T12:37:15;95864.09;;;23.30;42.20
11621;BME280;5866;49.094;11.900;2023-02-22T12:39:57;95868.63;;;21.57;44.78
11621;BME280;5866;49.094;11.900;2023-02-22T12:42:35;95865.88;;;20.71;46.31
11621;BME280;5866;49.094;11.900;2023-02-22T12:45:11;95866.84;;;21.11;45.65
11621;BME280;5866;49.094;11.900;2023-02-22T12:47:44;95869.97;;;20.85;46.54
11621;BME280;5866;49.094;11.900;2023-02-22T12:50:17;95873.94;;;20.82;46.45
11621;BME280;5866;49.094;11.900;2023-02-22T12:52:50;95863.03;;;20.54;46.87
11621;BME280;5866;49.094;11.900;2023-02-22T12:55:25;95871.75;;;20.26;47.51
11621;BME280;5866;49.094;11.900;2023-02-22T12:58:00;95863.78;;;20.20;48.33
11621;BME280;5866;49.094;11.900;2023-02-22T13:00:38;95865.44;;;20.03;48.88
11621;BME280;5866;49.094;11.900;2023-02-22T13:03:23;95866.16;;;19.68;49.36
11621;BME280;5866;49.094;11.900;2023-02-22T13:05:58;95856.19;;;19.39;49.32
11621;BME280;5866;49.094;11.900;2023-02-22T13:08:33;95858.88;;;19.69;48.89
11621;BME280;5866;49.094;11.900;2023-02-22T13:11:13;95850.63;;;20.12;48.05
11621;BME280;5866;49.094;11.900;2023-02-22T13:13:55;95853.88;;;20.02;47.67
11621;BME280;5866;49.094;11.900;2023-02-22T13:16:38;95853.97;;;20.25;47.79
11621;BME280;5866;49.094;11.900;2023-02-22T13:19:17;95850.22;;;20.26;47.75
11621;BME280;5866;49.094;11.900;2023-02-22T13:21:54;95850.69;;;20.23;48.28
11621;BME280;5866;49.094;11.900;2023-02-22T13:24:25;95843.13;;;20.78;46.62
11621;BME280;5866;49.094;11.900;2023-02-22T13:26:59;95845.59;;;21.66;45.64